Flight Track Log - Related Links

Times and Time Zones

All times are in EDT time to prevent confusion due to time zone crossing. See the EJA689 flight status page for this flight to view local times or setup timezone preferences in your user account.


Time Position Orientation Groundspeed Altitude Reporting Facility
EDT Latitude Longitude Course Direction KTS MPH feet Rate Location/Type
Mon 11:33:54 AM 42.5542 -76.5686 270° West 226 260 7,400  Level New York Center
Mon 11:36:09 AM 42.5961 -76.8006 284° West 266 306 13,700 3,015 Climbing Cleveland Center
Mon 11:37:09 AM 42.6189 -76.9206 285° West 304 350 17,200 2,600 Climbing Cleveland Center
Mon 11:38:00 AM 42.4931 -77.1395 270° West  Level Estimated
Mon 11:38:09 AM 42.6436 -77.0489 285° West 336 387 18,900  Level Cleveland Center
Mon 11:39:00 AM 42.4929 -77.2757 270° West  Level Estimated
Mon 11:39:00 AM 42.6500 -77.1167 277° West 360 414 19,000  Level Toronto Center
Mon 11:40:00 AM 42.6667 -77.2833 278° West 360 414 19,000 1,150 Level Toronto Center
Mon 11:41:00 AM 42.7000 -77.3833 294° West 360 414 21,300 2,700 Climbing Toronto Center
Mon 11:42:00 AM 42.7333 -77.5500 285° West 370 426 24,400 3,000 Climbing Toronto Center
Mon 11:43:00 AM 42.7500 -77.6833 280° West 380 437 27,300 2,600 Climbing Toronto Center
Mon 11:44:00 AM 42.7833 -77.8000 291° West 370 426 29,600 2,200 Climbing Toronto Center
Mon 11:45:00 AM 42.8167 -77.9333 289° West 370 426 31,700 1,750 Climbing Toronto Center
Mon 11:46:00 AM 42.8833 -78.0333 312° West 370 426 33,100 1,450 Climbing Toronto Center
Mon 11:47:00 AM 42.9333 -78.1833 295° West 370 426 34,600 1,350 Climbing Toronto Center
Mon 11:48:00 AM 42.9833 -78.2833 304° West 370 426 35,800 1,150 Climbing Toronto Center
Mon 11:49:00 AM 43.0167 -78.4167 289° West 360 414 36,900 1,050 Climbing Toronto Center
Mon 11:50:00 AM 43.0333 -78.5333 281° West 360 414 37,900 1,000 Climbing Toronto Center
Mon 11:51:00 AM 43.0333 -78.6833 270° West 360 414 38,900 1,000 Climbing Toronto Center
Mon 11:52:00 AM 43.0333 -78.8167 270° West 350 403 39,900 550 Climbing Toronto Center
Mon 11:53:00 AM 43.0333 -78.9500 270° West 350 403 40,000 50 Climbing Toronto Center
Mon 11:54:00 AM 43.0333 -79.1167 270° West 370 426 40,000  Level Toronto Center
Mon 11:55:00 AM 43.0333 -79.2500 270° West 390 449 40,000  Level Toronto Center
Mon 11:56:00 AM 43.0333 -79.4000 270° West 400 460 40,000  Level Toronto Center
Mon 11:57:00 AM 43.0333 -79.5500 270° West 400 460 40,000  Level Toronto Center
Mon 11:58:00 AM 43.0333 -79.7000 270° West 400 460 40,000  Level Toronto Center
Mon 11:59:00 AM 43.0333 -79.8667 270° West 400 460 40,000  Level Toronto Center
Mon 12:00:00 PM 43.0333 -80.0000 270° West 400 460 40,000  Level Toronto Center
Mon 12:01:00 PM 43.0333 -80.1500 270° West 400 460 40,000  Level Toronto Center
Mon 12:02:00 PM 43.0333 -80.3167 270° West 400 460 40,000  Level Toronto Center
Mon 12:03:00 PM 43.0333 -80.4500 270° West 400 460 40,000  Level Toronto Center
Mon 12:04:00 PM 43.0333 -80.6167 270° West 400 460 40,000  Level Toronto Center
Mon 12:05:00 PM 43.0333 -80.7667 270° West 410 472 40,000  Level Toronto Center
Mon 12:06:00 PM 43.0167 -80.9333 262° West 410 472 40,000  Level Toronto Center
Mon 12:07:00 PM 43.0167 -81.1000 270° West 410 472 40,000  Level Toronto Center
Mon 12:08:00 PM 43.0333 -81.2333 280° West 400 460 40,000  Level Toronto Center
Mon 12:09:00 PM 43.1000 -81.3667 304° West 400 460 40,000  Level Toronto Center
Mon 12:10:00 PM 43.1667 -81.4833 308° West 400 460 40,000  Level Toronto Center
Mon 12:11:00 PM 43.2000 -81.6167 289° West 390 449 40,000  Level Toronto Center
Mon 12:12:00 PM 43.1833 -81.7833 262° West 410 472 40,000  Level Toronto Center
Mon 12:13:00 PM 43.1500 -81.9167 251° West 410 472 40,000 -250 Level Toronto Center
Mon 12:14:00 PM 43.1333 -82.0833 262° West 420 483 39,500 -950 Descending Toronto Center
Mon 12:15:00 PM 43.1333 -82.2333 270° West 410 472 38,100 -1,450 Descending Toronto Center
Mon 12:16:00 PM 43.1167 -82.4000 262° West 410 472 36,600 -2,000 Descending Toronto Center
Mon 12:17:00 PM 43.1000 -82.5333 260° West 400 460 34,100 -2,571 Descending Toronto Center
Mon 12:17:45 PM 43.0894 -82.6728 264° West 409 471 32,100 -2,343 Descending Cleveland Center
Mon 12:18:45 PM 43.0719 -82.8256 261° West 409 471 30,000 -1,050 Descending Cleveland Center
Mon 12:19:45 PM 43.0564 -82.9814 262° West 409 471 30,000  Level Cleveland Center
Mon 12:20:45 PM 43.0383 -83.1369 261° West 409 471 30,000  Level Cleveland Center
Mon 12:21:45 PM 43.0206 -83.2781 260° West 415 478 30,000  Level Cleveland Center
Mon 12:22:45 PM 43.0022 -83.4306 261° West 415 478 30,000  Level Cleveland Center
Mon 12:23:45 PM 42.9839 -83.5831 261° West 415 478 30,000  Level Cleveland Center
Mon 12:24:45 PM 42.9672 -83.7383 262° West 415 478 30,000  Level Cleveland Center
Mon 12:25:45 PM 42.9503 -83.8964 262° West 415 478 30,000  Level Cleveland Center
Mon 12:26:45 PM 42.9356 -84.0489 263° West 415 478 30,000  Level Cleveland Center
Mon 12:27:45 PM 42.9203 -84.2039 262° West 415 478 30,000  Level Cleveland Center
Mon 12:28:45 PM 42.9042 -84.3789 263° West 415 478 30,000  Level Cleveland Center
Mon 12:29:45 PM 42.8886 -84.5339 262° West 420 483 30,000  Level Cleveland Center
Mon 12:30:00 PM 42.8861 -84.5578 262° West 417 480 30,000  Level Chicago Center
Mon 12:31:02 PM 42.8706 -84.7128 262° West 414 476 30,000  Level Chicago Center
Mon 12:32:04 PM 42.8536 -84.8697 262° West 419 482 30,000  Level Chicago Center
Mon 12:33:06 PM 42.8375 -85.0264 262° West 419 482 30,000 -484 Level Chicago Center
Mon 12:34:08 PM 42.8181 -85.2122 262° West 414 476 29,000 -968 Descending Chicago Center
Mon 12:35:10 PM 42.8011 -85.3642 261° West 407 468 28,000 -484 Descending Chicago Center
Mon 12:36:12 PM 42.7825 -85.5211 261° West 417 480 28,000  Level Chicago Center
Mon 12:37:14 PM 42.7533 -85.6803 256° West 429 494 28,000 -871 Level Chicago Center
Mon 12:38:16 PM 42.7250 -85.8392 256° West 430 495 26,200 -2,323 Descending Chicago Center
Mon 12:39:18 PM 42.6972 -85.9917 256° West 416 479 23,200 -2,516 Descending Chicago Center
Mon 12:40:20 PM 42.6694 -86.1408 256° West 408 470 21,000 -1,597 Descending Chicago Center
Mon 12:41:22 PM 42.6439 -86.2833 256° West 394 453 19,900 -1,355 Descending Chicago Center
Mon 12:42:24 PM 42.6125 -86.4464 255° West 375 432 18,200 -1,694 Descending Chicago Center
Mon 12:43:26 PM 42.5878 -86.5828 256° West 373 429 16,400 -1,839 Descending Chicago Center
Mon 12:44:28 PM 42.5619 -86.7142 255° West 362 417 14,400 -1,645 Descending Chicago Center
Mon 12:45:30 PM 42.5303 -86.8392 251° West 354 407 13,000 -1,306 Descending Chicago Center
Mon 12:46:32 PM 42.4969 -86.9614 250° West 346 398 11,700 -1,306 Descending Chicago Center
Mon 12:47:34 PM 42.4639 -87.0772 249° West 333 383 10,300 -1,306 Descending Chicago Center
Mon 12:48:36 PM 42.3964 -87.1553 221° Southwest 305 351 9,000 -629 Descending Chicago Center
Mon 12:49:38 PM 42.3150 -87.1728 189° South 300 345 9,000 -242 Level Chicago Center
Mon 12:50:40 PM 42.2381 -87.1881 188° South 303 349 8,500 -968 Descending Chicago Center
Mon 12:51:42 PM 42.1417 -87.2083 189° South 293 337 7,000 -919 Descending Chicago Center
Mon 12:52:44 PM 42.0647 -87.2258 190° South 282 325 6,600 -480 Descending Chicago Center
Mon 12:53:47 PM 42.0058 -87.2683 208° Southwest 267 307 6,000 -288 Descending Chicago Center
Mon 12:54:49 PM 41.9842 -87.3503 250° West 235 270 6,000  Level Chicago Center
Mon 12:55:59 PM 41.9833 -87.4500 269° West 207 238 6,000  Level Chicago TRACON
Mon 12:56:54 PM 41.9833 -87.5167 270° West 170 196 6,000 -298 Level Chicago TRACON
Mon 12:58:00 PM 41.9833 -87.5833 270° West 173 199 5,400 -800 Descending Chicago TRACON
Mon 12:58:54 PM 41.9833 -87.6333 270° West 172 198 4,400 -1,000 Descending Chicago TRACON
Mon 12:59:54 PM 41.9833 -87.7000 270° West 176 203 3,500 -950 Descending Chicago TRACON
Mon 01:00:54 PM 41.9833 -87.7667 270° West 167 192 2,500 -900 Descending Chicago TRACON
Mon 01:01:54 PM 41.9833 -87.8167 270° West 145 167 1,700 -750 Descending Chicago TRACON
Mon 01:02:54 PM 41.9833 -87.8667 270° West 124 143 1,000 -700 Descending Chicago TRACON
Mon 01:05:00 PM 41.9667 -87.9000 180° South  Level FlightAware Approximate

Login

Don't have an account? Register now (free) for customized features, flight alerts, and more!